createdAt,value
2017-01-01T00:00:10.465Z,49.60
2017-01-01T00:01:12.908Z,49.60
2017-01-01T00:02:11.939Z,49.50
2017-01-01T00:03:14.309Z,49.60
2017-01-01T00:04:13.394Z,49.60
2017-01-01T00:05:12.202Z,49.60
2017-01-01T00:06:12.162Z,49.50
2017-01-01T00:07:12.322Z,49.60
2017-01-01T00:08:12.396Z,49.50
2017-01-01T00:09:10.169Z,is
2017-01-01T00:10:11.543Z,49.60
2017-01-01T00:11:11.538Z,49.60
2017-01-01T00:12:11.492Z,49.60
2017-01-01T00:13:12.125Z,49.90
2017-01-01T00:14:12.651Z,49.70
2017-01-01T00:15:13.473Z,49.60
2017-01-01T00:16:12.205Z,49.60
2017-01-01T00:17:12.766Z,49.60
2017-01-01T00:18:13.429Z,49.60
2017-01-01T00:19:12.168Z,49.60
2017-01-01T00:20:12.984Z,49.60
2017-01-01T00:21:12.858Z,49.60
2017-01-01T00:22:11.972Z,49.70
2017-01-01T00:23:12.710Z,49.60
2017-01-01T00:24:11.973Z,49.50
2017-01-01T00:25:12.689Z,49.60
2017-01-01T00:26:12.238Z,49.50
2017-01-01T00:27:12.993Z,49.60
2017-01-01T00:28:12.006Z,49.60
2017-01-01T00:29:12.881Z,49.60
2017-01-01T00:30:12.654Z,49.60
2017-01-01T00:31:12.499Z,49.70
2017-01-01T00:32:11.970Z,49.60
2017-01-01T00:33:10.003Z,is
2017-01-01T00:34:12.912Z,49.70
2017-01-01T00:35:12.459Z,49.60
2017-01-01T00:36:11.539Z,49.50
2017-01-01T00:37:11.691Z,49.60
2017-01-01T00:38:11.793Z,49.60
2017-01-01T00:39:12.436Z,49.60
2017-01-01T00:40:12.038Z,49.70
2017-01-01T00:41:12.935Z,49.60
2017-01-01T00:42:12.358Z,49.60
2017-01-01T00:43:10.945Z,is
2017-01-01T00:44:12.385Z,49.60
2017-01-01T00:45:11.517Z,49.50
2017-01-01T00:46:13.079Z,49.60
2017-01-01T00:47:12.882Z,49.60
2017-01-01T00:48:15.263Z,49.60
2017-01-01T00:49:13.108Z,49.60
2017-01-01T00:50:14.088Z,49.60
2017-01-01T00:51:12.737Z,49.60
2017-01-01T00:52:12.481Z,49.60
2017-01-01T00:53:11.648Z,49.60
2017-01-01T00:54:10.391Z,is
2017-01-01T00:55:12.339Z,49.50
2017-01-01T00:56:12.285Z,49.50
2017-01-01T00:57:15.159Z,49.50
2017-01-01T00:58:12.303Z,49.50
2017-01-01T00:59:12.246Z,49.50
2017-01-01T01:00:12.845Z,49.50
2017-01-01T01:01:12.628Z,49.50
2017-01-01T01:02:13.356Z,49.90
2017-01-01T01:03:11.858Z,49.50
2017-01-01T01:04:12.433Z,49.50
2017-01-01T01:05:12.352Z,49.60
2017-01-01T01:06:12.373Z,49.50
2017-01-01T01:07:13.205Z,49.50
2017-01-01T01:08:17.124Z,49.40
2017-01-01T01:09:15.222Z,49.50
2017-01-01T01:10:13.685Z,49.50
2017-01-01T01:11:13.684Z,49.50
2017-01-01T01:12:13.321Z,49.60
2017-01-01T01:13:12.374Z,49.50
2017-01-01T01:14:13.447Z,49.50
2017-01-01T01:15:12.223Z,49.50
2017-01-01T01:16:12.236Z,49.40
2017-01-01T01:17:12.398Z,49.50
2017-01-01T01:18:11.529Z,49.50
2017-01-01T01:19:11.772Z,49.50
2017-01-01T01:20:12.382Z,49.50
2017-01-01T01:21:11.370Z,49.50
2017-01-01T01:22:13.380Z,49.60
2017-01-01T01:23:12.570Z,49.50
2017-01-01T01:24:12.444Z,49.60
2017-01-01T01:25:11.575Z,49.50
2017-01-01T01:26:11.650Z,49.50
2017-01-01T01:27:10.537Z,is
2017-01-01T01:28:13.433Z,49.60
2017-01-01T01:29:12.515Z,49.60
2017-01-01T01:30:10.539Z,is
2017-01-01T01:31:11.502Z,49.50
2017-01-01T01:32:12.169Z,49.60
2017-01-01T01:33:14.032Z,49.70
2017-01-01T01:34:13.292Z,49.50
2017-01-01T01:35:12.133Z,49.60
2017-01-01T01:36:12.252Z,49.50
2017-01-01T01:37:12.234Z,49.50
2017-01-01T01:38:13.229Z,49.60
2017-01-01T01:39:14.072Z,49.60
2017-01-01T01:40:12.885Z,49.50
2017-01-01T01:41:13.436Z,49.60
2017-01-01T01:42:12.069Z,49.50
2017-01-01T01:43:13.691Z,49.70
2017-01-01T01:44:12.480Z,49.60
2017-01-01T01:45:11.441Z,49.50
2017-01-01T01:46:10.313Z,is
2017-01-01T01:47:11.992Z,49.60
2017-01-01T01:48:13.346Z,49.60
2017-01-01T01:49:11.453Z,49.40
2017-01-01T01:50:11.484Z,49.50
2017-01-01T01:51:12.191Z,49.50
2017-01-01T01:52:13.059Z,49.50
2017-01-01T01:53:12.740Z,49.50
2017-01-01T01:54:13.442Z,49.50
2017-01-01T01:55:12.921Z,49.50
2017-01-01T01:56:12.732Z,49.50
2017-01-01T01:57:12.380Z,49.50
2017-01-01T01:58:11.474Z,49.50
2017-01-01T01:59:12.053Z,49.50
2017-01-01T02:00:12.376Z,49.50
2017-01-01T02:01:11.584Z,49.40
2017-01-01T02:02:12.725Z,49.50
2017-01-01T02:03:11.782Z,49.50
2017-01-01T02:04:12.464Z,49.60
2017-01-01T02:05:12.410Z,49.50
2017-01-01T02:06:08.631Z,is
2017-01-01T02:07:12.415Z,49.70
2017-01-01T02:08:11.424Z,49.50
2017-01-01T02:09:14.345Z,49.60
2017-01-01T02:10:12.763Z,49.50
2017-01-01T02:11:12.304Z,49.50
2017-01-01T02:12:12.422Z,49.50
2017-01-01T02:13:12.164Z,49.60
2017-01-01T02:14:14.674Z,49.60
2017-01-01T02:15:13.252Z,49.70
2017-01-01T02:16:13.092Z,49.60
2017-01-01T02:17:12.915Z,49.20
2017-01-01T02:18:13.380Z,48.90
2017-01-01T02:19:13.071Z,49.10
2017-01-01T02:20:12.032Z,49.00
2017-01-01T02:21:12.563Z,49.30
2017-01-01T02:22:12.131Z,49.30
2017-01-01T02:23:12.328Z,49.40
2017-01-01T02:24:13.242Z,49.50
2017-01-01T02:25:12.681Z,49.40
2017-01-01T02:26:13.150Z,49.40
2017-01-01T02:27:13.842Z,49.40
2017-01-01T02:28:11.866Z,49.40
2017-01-01T02:29:12.255Z,49.40
2017-01-01T02:30:13.019Z,49.40
2017-01-01T02:31:09.373Z,is
2017-01-01T02:32:10.240Z,is
2017-01-01T02:33:12.394Z,49.40
2017-01-01T02:34:10.421Z,is
2017-01-01T02:35:12.345Z,49.50
2017-01-01T02:36:10.948Z,is
2017-01-01T02:37:12.389Z,49.50
2017-01-01T02:38:10.021Z,is
2017-01-01T02:39:12.953Z,49.60
2017-01-01T02:40:12.742Z,49.60
2017-01-01T02:41:12.718Z,49.50
2017-01-01T02:42:13.804Z,49.50
2017-01-01T02:43:11.868Z,49.50
2017-01-01T02:44:12.782Z,49.50
2017-01-01T02:45:12.468Z,49.70
2017-01-01T02:46:12.211Z,49.60
2017-01-01T02:47:12.389Z,49.60
2017-01-01T02:48:09.272Z,is
2017-01-01T02:49:11.979Z,49.60
2017-01-01T02:50:12.011Z,49.60
2017-01-01T02:51:12.813Z,49.80
2017-01-01T02:52:11.964Z,49.70
2017-01-01T02:53:12.116Z,49.90
2017-01-01T02:54:12.306Z,49.70
2017-01-01T02:55:13.331Z,49.70
2017-01-01T02:56:10.261Z,is
2017-01-01T02:57:11.750Z,49.70
2017-01-01T02:58:12.644Z,49.70
2017-01-01T02:59:11.819Z,49.70
2017-01-01T03:00:12.634Z,49.70
2017-01-01T03:01:11.614Z,49.70
2017-01-01T03:02:12.330Z,49.80
2017-01-01T03:03:12.327Z,49.80
2017-01-01T03:04:12.473Z,49.80
2017-01-01T03:05:12.873Z,49.80
2017-01-01T03:06:11.948Z,49.80
2017-01-01T03:07:12.664Z,49.80
2017-01-01T03:08:11.844Z,49.80
2017-01-01T03:09:12.020Z,49.80
2017-01-01T03:10:12.142Z,49.80
2017-01-01T03:11:12.212Z,49.80
2017-01-01T03:12:13.124Z,49.90
2017-01-01T03:13:12.385Z,49.80
2017-01-01T03:14:12.078Z,49.80
2017-01-01T03:15:12.327Z,49.80
2017-01-01T03:16:12.516Z,49.90
2017-01-01T03:17:12.380Z,49.80
2017-01-01T03:18:11.580Z,49.80
2017-01-01T03:19:13.442Z,50.00
2017-01-01T03:20:12.277Z,49.90
2017-01-01T03:21:12.335Z,49.90
2017-01-01T03:22:12.371Z,49.80
2017-01-01T03:23:12.320Z,50.00
2017-01-01T03:24:12.282Z,49.90
2017-01-01T03:25:14.849Z,49.90
2017-01-01T03:26:13.020Z,49.90
2017-01-01T03:27:12.124Z,50.00
2017-01-01T03:28:12.262Z,50.00
2017-01-01T03:29:14.783Z,49.90
2017-01-01T03:30:12.316Z,49.90
2017-01-01T03:31:13.104Z,50.00
2017-01-01T03:32:10.927Z,is
2017-01-01T03:33:12.212Z,50.00
2017-01-01T03:34:12.151Z,50.10
2017-01-01T03:35:12.121Z,50.00
2017-01-01T03:36:10.570Z,is
2017-01-01T03:37:09.379Z,is
2017-01-01T03:38:13.407Z,50.10
2017-01-01T03:39:11.546Z,50.10
2017-01-01T03:40:12.135Z,50.20
2017-01-01T03:41:13.058Z,50.00
2017-01-01T03:42:12.840Z,50.20
2017-01-01T03:43:12.865Z,50.00
2017-01-01T03:44:09.956Z,is
2017-01-01T03:45:12.585Z,50.10
2017-01-01T03:46:12.279Z,50.10
2017-01-01T03:47:13.283Z,50.00
2017-01-01T03:48:14.183Z,50.10
2017-01-01T03:49:09.509Z,is
2017-01-01T03:50:11.621Z,50.00
2017-01-01T03:51:12.662Z,50.10
2017-01-01T03:52:12.796Z,50.10
2017-01-01T03:53:11.852Z,50.10
2017-01-01T03:54:13.678Z,50.10
2017-01-01T03:55:12.625Z,50.60
2017-01-01T03:56:11.719Z,50.10
2017-01-01T03:57:11.926Z,50.20
2017-01-01T03:58:12.707Z,50.20
2017-01-01T03:59:12.799Z,50.30
2017-01-01T04:00:12.617Z,50.20
2017-01-01T04:01:11.801Z,50.20
2017-01-01T04:02:11.758Z,50.20
2017-01-01T04:03:11.777Z,50.20
2017-01-01T04:04:12.526Z,50.30
2017-01-01T04:05:11.500Z,50.20
2017-01-01T04:06:12.450Z,50.20
2017-01-01T04:07:12.226Z,50.30
2017-01-01T04:08:15.968Z,50.20
2017-01-01T04:09:10.886Z,is
2017-01-01T04:10:12.710Z,50.30
2017-01-01T04:11:11.826Z,50.30
2017-01-01T04:12:11.981Z,50.30
2017-01-01T04:13:12.021Z,50.30
2017-01-01T04:14:12.047Z,50.30
2017-01-01T04:15:12.394Z,50.40
2017-01-01T04:16:11.928Z,50.20
2017-01-01T04:17:13.804Z,50.30
2017-01-01T04:18:13.428Z,50.30
2017-01-01T04:19:12.423Z,50.40
2017-01-01T04:20:11.403Z,50.40
2017-01-01T04:21:11.537Z,50.30
2017-01-01T04:22:12.390Z,50.40
2017-01-01T04:23:12.625Z,50.40
2017-01-01T04:24:12.285Z,50.40
2017-01-01T04:25:12.349Z,50.40
2017-01-01T04:26:13.356Z,51.10
2017-01-01T04:27:12.296Z,50.50
2017-01-01T04:28:12.955Z,50.40
2017-01-01T04:29:12.656Z,50.50
2017-01-01T04:30:12.227Z,50.50
2017-01-01T04:31:13.167Z,50.50
2017-01-01T04:32:12.279Z,50.40
2017-01-01T04:33:12.864Z,50.60
2017-01-01T04:34:13.477Z,50.40
2017-01-01T04:35:12.519Z,50.60
2017-01-01T04:36:11.538Z,50.60
2017-01-01T04:37:12.496Z,50.60
2017-01-01T04:38:11.695Z,50.60
2017-01-01T04:39:11.728Z,50.60
2017-01-01T04:40:12.328Z,50.70
2017-01-01T04:41:12.997Z,50.70
2017-01-01T04:42:12.274Z,50.70
2017-01-01T04:43:11.147Z,is
2017-01-01T04:44:13.098Z,50.70
2017-01-01T04:45:12.707Z,51.00
2017-01-01T04:46:12.358Z,50.70
2017-01-01T04:47:12.097Z,50.70
2017-01-01T04:48:12.110Z,50.70
2017-01-01T04:49:12.868Z,50.80
2017-01-01T04:50:13.377Z,50.80
2017-01-01T04:51:11.594Z,50.70
2017-01-01T04:52:12.626Z,50.70
2017-01-01T04:53:13.691Z,50.80
2017-01-01T04:54:11.819Z,50.80
2017-01-01T04:55:11.814Z,50.80
2017-01-01T04:56:12.660Z,50.80
2017-01-01T04:57:11.676Z,50.70
2017-01-01T04:58:11.725Z,50.70
2017-01-01T04:59:10.408Z,is
2017-01-01T05:00:12.048Z,50.70
2017-01-01T05:01:12.422Z,50.70
2017-01-01T05:02:13.372Z,50.70
2017-01-01T05:03:13.351Z,50.80
2017-01-01T05:04:12.410Z,50.70
2017-01-01T05:05:11.599Z,50.80
2017-01-01T05:06:13.923Z,50.90
2017-01-01T05:07:12.708Z,50.80
2017-01-01T05:08:15.160Z,50.80
2017-01-01T05:09:12.553Z,50.80
2017-01-01T05:10:12.348Z,50.90
2017-01-01T05:11:13.094Z,50.90
2017-01-01T05:12:13.132Z,50.90
2017-01-01T05:13:12.927Z,50.90
2017-01-01T05:14:12.007Z,50.80
2017-01-01T05:15:12.581Z,50.80
2017-01-01T05:16:11.696Z,50.80
2017-01-01T05:17:13.432Z,50.90
2017-01-01T05:18:11.510Z,50.80
2017-01-01T05:19:14.117Z,50.90
2017-01-01T05:20:14.375Z,50.80
2017-01-01T05:21:12.257Z,50.90
2017-01-01T05:22:12.565Z,50.90
2017-01-01T05:23:12.066Z,50.90
2017-01-01T05:24:12.114Z,50.90
2017-01-01T05:25:16.094Z,50.90
2017-01-01T05:26:11.817Z,50.90
2017-01-01T05:27:12.488Z,50.90
2017-01-01T05:28:12.372Z,50.90
2017-01-01T05:29:12.455Z,50.90
2017-01-01T05:30:11.390Z,50.90
2017-01-01T05:31:10.175Z,is
2017-01-01T05:32:10.845Z,is
2017-01-01T05:33:12.510Z,50.90
2017-01-01T05:34:12.286Z,50.90
2017-01-01T05:35:13.145Z,50.90
2017-01-01T05:36:12.996Z,51.00
2017-01-01T05:37:12.172Z,51.00
2017-01-01T05:38:12.849Z,50.80
2017-01-01T05:39:13.205Z,50.90
2017-01-01T05:40:12.769Z,51.00
2017-01-01T05:41:11.658Z,50.90
2017-01-01T05:42:11.662Z,50.90
2017-01-01T05:43:12.373Z,51.00
2017-01-01T05:44:13.315Z,51.00
2017-01-01T05:45:12.891Z,51.00
2017-01-01T05:46:12.050Z,51.00
2017-01-01T05:47:13.668Z,51.00
2017-01-01T05:48:11.739Z,50.90
2017-01-01T05:49:11.835Z,51.00
2017-01-01T05:50:11.955Z,51.00
2017-01-01T05:51:12.001Z,51.00
2017-01-01T05:52:13.916Z,51.00
2017-01-01T05:53:12.316Z,50.90
2017-01-01T05:54:13.085Z,51.20
2017-01-01T05:55:12.072Z,51.20
2017-01-01T05:56:12.206Z,51.10
2017-01-01T05:57:13.024Z,51.10
2017-01-01T05:58:12.749Z,51.20
2017-01-01T05:59:12.917Z,51.00
2017-01-01T06:00:12.497Z,51.20
2017-01-01T06:01:11.476Z,51.10
2017-01-01T06:02:11.853Z,51.10
2017-01-01T06:03:14.267Z,51.20
2017-01-01T06:04:13.031Z,51.20
2017-01-01T06:05:13.281Z,51.10
2017-01-01T06:06:12.261Z,51.00
2017-01-01T06:07:14.652Z,51.00
2017-01-01T06:08:13.437Z,51.20
2017-01-01T06:09:10.333Z,is
2017-01-01T06:10:13.923Z,51.10
2017-01-01T06:11:12.052Z,51.10
2017-01-01T06:12:12.185Z,51.10
2017-01-01T06:13:13.267Z,51.20
2017-01-01T06:14:12.288Z,51.10
2017-01-01T06:15:12.833Z,51.30
2017-01-01T06:16:12.362Z,51.10
2017-01-01T06:17:12.933Z,51.00
2017-01-01T06:18:12.583Z,51.10
2017-01-01T06:19:11.607Z,51.10
2017-01-01T06:20:11.693Z,51.10
2017-01-01T06:21:12.830Z,51.20
2017-01-01T06:22:11.934Z,51.10
2017-01-01T06:23:12.497Z,51.10
2017-01-01T06:24:12.451Z,51.20
2017-01-01T06:25:11.489Z,51.40
2017-01-01T06:26:12.137Z,51.20
2017-01-01T06:27:12.122Z,51.10
2017-01-01T06:28:12.548Z,51.10
2017-01-01T06:29:12.362Z,51.20
2017-01-01T06:30:12.429Z,51.10
2017-01-01T06:31:11.488Z,51.10
2017-01-01T06:32:11.528Z,51.10
2017-01-01T06:33:11.561Z,51.20
2017-01-01T06:34:11.566Z,51.10
2017-01-01T06:35:11.993Z,51.20
2017-01-01T06:36:12.674Z,51.20
2017-01-01T06:37:11.839Z,51.20
2017-01-01T06:38:13.405Z,51.30
2017-01-01T06:39:12.554Z,51.30
2017-01-01T06:40:12.278Z,51.30
2017-01-01T06:41:12.449Z,51.20
2017-01-01T06:42:11.577Z,51.10
2017-01-01T06:43:13.511Z,51.30
2017-01-01T06:44:12.031Z,51.30
2017-01-01T06:45:12.069Z,51.20
2017-01-01T06:46:12.526Z,51.20
2017-01-01T06:47:11.602Z,51.10
2017-01-01T06:48:13.209Z,51.30
2017-01-01T06:49:12.576Z,51.20
2017-01-01T06:50:11.620Z,51.20
2017-01-01T06:51:11.806Z,51.20
2017-01-01T06:52:12.350Z,51.20
2017-01-01T06:53:12.385Z,51.10
2017-01-01T06:54:11.955Z,51.20
2017-01-01T06:55:11.939Z,51.20
2017-01-01T06:56:10.283Z,is
2017-01-01T06:57:13.417Z,51.20
2017-01-01T06:58:11.436Z,51.20
2017-01-01T06:59:12.943Z,51.40
2017-01-01T07:00:12.073Z,51.20
2017-01-01T07:01:12.821Z,51.20
2017-01-01T07:02:10.733Z,is
2017-01-01T07:03:12.635Z,51.30
2017-01-01T07:04:12.180Z,51.40
2017-01-01T07:05:12.993Z,51.30
2017-01-01T07:06:13.776Z,51.30
2017-01-01T07:07:12.428Z,51.40
2017-01-01T07:08:12.134Z,51.40
2017-01-01T07:09:12.485Z,51.30
2017-01-01T07:10:11.892Z,51.30
2017-01-01T07:11:12.737Z,51.30
2017-01-01T07:12:13.294Z,51.40
2017-01-01T07:13:12.254Z,51.40
2017-01-01T07:14:13.499Z,51.30
2017-01-01T07:15:12.337Z,51.40
2017-01-01T07:16:15.235Z,51.40
2017-01-01T07:17:12.394Z,51.40
2017-01-01T07:18:11.438Z,51.20
2017-01-01T07:19:12.159Z,52.00
2017-01-01T07:20:12.792Z,51.50
2017-01-01T07:21:13.683Z,51.30
2017-01-01T07:22:11.793Z,51.20
2017-01-01T07:23:12.328Z,51.50
2017-01-01T07:24:12.335Z,51.50
2017-01-01T07:25:12.882Z,51.40
2017-01-01T07:26:15.602Z,51.30
2017-01-01T07:27:13.845Z,51.30
2017-01-01T07:28:11.887Z,51.30
2017-01-01T07:29:12.541Z,51.40
2017-01-01T07:30:12.279Z,51.20
2017-01-01T07:31:12.241Z,51.20
2017-01-01T07:32:12.674Z,51.30
2017-01-01T07:33:12.517Z,51.50
2017-01-01T07:34:12.245Z,51.40
2017-01-01T07:35:12.597Z,51.40
2017-01-01T07:36:12.409Z,51.30
2017-01-01T07:37:13.139Z,51.30
2017-01-01T07:38:13.970Z,51.90
2017-01-01T07:39:13.618Z,51.50
2017-01-01T07:40:11.590Z,51.70
2017-01-01T07:41:10.365Z,is
2017-01-01T07:42:11.563Z,51.40
2017-01-01T07:43:11.658Z,51.40
2017-01-01T07:44:12.316Z,51.40
2017-01-01T07:45:12.459Z,51.40
2017-01-01T07:46:11.610Z,51.30
2017-01-01T07:47:11.712Z,51.40
2017-01-01T07:48:12.321Z,51.40
2017-01-01T07:49:12.186Z,51.40
2017-01-01T07:50:12.189Z,51.30
2017-01-01T07:51:14.899Z,51.90
2017-01-01T07:52:13.509Z,51.50
2017-01-01T07:53:12.182Z,51.50
2017-01-01T07:54:13.880Z,51.40
2017-01-01T07:55:11.794Z,51.40
2017-01-01T07:56:12.538Z,51.40
2017-01-01T07:57:11.613Z,51.50
2017-01-01T07:58:11.726Z,51.50
2017-01-01T07:59:12.279Z,51.40
2017-01-01T08:00:12.335Z,51.40
2017-01-01T08:01:12.027Z,51.50
2017-01-01T08:02:12.815Z,51.60
2017-01-01T08:03:13.477Z,51.40
2017-01-01T08:04:12.085Z,51.40
2017-01-01T08:05:12.527Z,51.40
2017-01-01T08:06:11.698Z,51.40
2017-01-01T08:07:11.739Z,51.40
2017-01-01T08:08:11.904Z,51.40
2017-01-01T08:09:13.677Z,51.60
2017-01-01T08:10:10.399Z,is
2017-01-01T08:11:11.767Z,51.40
2017-01-01T08:12:11.699Z,51.60
2017-01-01T08:13:10.431Z,is
2017-01-01T08:14:12.228Z,51.50
2017-01-01T08:15:12.201Z,51.60
2017-01-01T08:16:12.279Z,51.50
2017-01-01T08:17:12.474Z,51.60
2017-01-01T08:18:11.564Z,51.50
2017-01-01T08:19:12.351Z,51.50
2017-01-01T08:20:13.197Z,51.50
2017-01-01T08:21:13.026Z,51.60
2017-01-01T08:22:12.768Z,51.60
2017-01-01T08:23:12.548Z,51.60
2017-01-01T08:24:12.176Z,51.40
2017-01-01T08:25:12.274Z,51.50
2017-01-01T08:26:12.403Z,51.50
2017-01-01T08:27:11.394Z,51.50
2017-01-01T08:28:11.438Z,51.50
2017-01-01T08:29:12.303Z,51.50
2017-01-01T08:30:12.944Z,51.70
2017-01-01T08:31:11.899Z,51.60
2017-01-01T08:32:11.984Z,51.70
2017-01-01T08:33:12.098Z,51.50
2017-01-01T08:34:12.119Z,51.70
2017-01-01T08:35:12.870Z,51.70
2017-01-01T08:36:12.575Z,51.70
2017-01-01T08:37:11.965Z,51.60
2017-01-01T08:38:12.520Z,51.60
2017-01-01T08:39:13.669Z,51.60
2017-01-01T08:40:11.699Z,51.50
2017-01-01T08:41:12.661Z,51.70
2017-01-01T08:42:12.554Z,51.60
2017-01-01T08:43:11.441Z,51.60
2017-01-01T08:44:11.436Z,51.50
2017-01-01T08:45:11.305Z,51.60
2017-01-01T08:46:12.249Z,51.50
2017-01-01T08:47:12.857Z,51.70
2017-01-01T08:48:12.493Z,51.60
2017-01-01T08:49:12.117Z,51.70
2017-01-01T08:50:12.869Z,51.60
2017-01-01T08:51:12.212Z,51.60
2017-01-01T08:52:13.400Z,51.60
2017-01-01T08:53:13.147Z,51.60
2017-01-01T08:54:12.515Z,51.70
2017-01-01T08:55:12.778Z,51.60
2017-01-01T08:56:12.121Z,51.60
2017-01-01T08:57:12.138Z,51.70
2017-01-01T08:58:12.830Z,51.70
2017-01-01T08:59:12.571Z,51.80
2017-01-01T09:00:11.616Z,51.70
2017-01-01T09:01:11.753Z,51.70
2017-01-01T09:02:11.864Z,51.80
2017-01-01T09:03:13.684Z,51.40
2017-01-01T09:04:11.709Z,51.60
2017-01-01T09:05:13.408Z,51.70
2017-01-01T09:06:13.150Z,51.70
2017-01-01T09:07:15.116Z,51.70
2017-01-01T09:08:12.425Z,51.80
2017-01-01T09:09:12.451Z,51.70
2017-01-01T09:10:11.976Z,51.70
2017-01-01T09:11:12.712Z,51.80
2017-01-01T09:12:12.233Z,51.70
2017-01-01T09:13:11.307Z,is
2017-01-01T09:14:12.832Z,51.80
2017-01-01T09:15:12.203Z,51.70
2017-01-01T09:16:14.075Z,51.80
2017-01-01T09:17:13.834Z,51.80
2017-01-01T09:18:12.706Z,51.80
2017-01-01T09:19:12.227Z,51.70
2017-01-01T09:20:10.924Z,is
2017-01-01T09:21:12.278Z,51.70
2017-01-01T09:22:12.114Z,51.70
2017-01-01T09:23:13.338Z,51.80
2017-01-01T09:24:12.445Z,51.80
2017-01-01T09:25:11.345Z,51.80
2017-01-01T09:26:11.376Z,51.80
2017-01-01T09:27:11.716Z,51.80
2017-01-01T09:28:11.583Z,51.80
2017-01-01T09:29:11.712Z,51.90
2017-01-01T09:30:12.275Z,51.80
2017-01-01T09:31:12.409Z,51.80
2017-01-01T09:32:11.186Z,51.90
2017-01-01T09:33:12.816Z,51.90
2017-01-01T09:34:12.361Z,51.90
2017-01-01T09:35:11.204Z,is
2017-01-01T09:36:13.016Z,51.90
2017-01-01T09:37:12.115Z,51.90
2017-01-01T09:38:12.745Z,52.10
2017-01-01T09:39:12.755Z,51.90
2017-01-01T09:40:12.387Z,51.90
2017-01-01T09:41:11.637Z,51.80
2017-01-01T09:42:11.746Z,51.90
2017-01-01T09:43:11.864Z,51.90
2017-01-01T09:44:13.423Z,51.90
2017-01-01T09:45:12.302Z,52.00
2017-01-01T09:46:13.866Z,51.90
2017-01-01T09:47:11.813Z,51.90
2017-01-01T09:48:14.260Z,52.00
2017-01-01T09:49:12.068Z,51.90
2017-01-01T09:50:12.473Z,52.30
2017-01-01T09:51:12.299Z,51.90
2017-01-01T09:52:09.635Z,is
2017-01-01T09:53:11.562Z,51.90
2017-01-01T09:54:12.722Z,51.90
2017-01-01T09:55:12.609Z,51.90
2017-01-01T09:56:12.571Z,51.90
2017-01-01T09:57:11.725Z,51.90
2017-01-01T09:58:11.726Z,51.90
2017-01-01T09:59:13.226Z,52.00
2017-01-01T10:00:11.991Z,51.90
2017-01-01T10:01:11.926Z,51.90
2017-01-01T10:02:12.096Z,51.90
2017-01-01T10:03:12.185Z,51.90
2017-01-01T10:04:12.357Z,51.90
2017-01-01T10:05:12.901Z,52.00
2017-01-01T10:06:12.108Z,52.00
2017-01-01T10:07:12.819Z,52.00
2017-01-01T10:08:12.123Z,52.10
2017-01-01T10:09:13.214Z,52.00
2017-01-01T10:10:14.213Z,52.00
2017-01-01T10:11:12.514Z,52.00
2017-01-01T10:12:12.506Z,52.10
2017-01-01T10:13:11.542Z,52.00
2017-01-01T10:14:11.808Z,52.00
2017-01-01T10:15:11.754Z,52.00
2017-01-01T10:16:13.563Z,52.10
2017-01-01T10:17:13.275Z,52.20
2017-01-01T10:18:10.902Z,is
2017-01-01T10:19:11.314Z,52.00
2017-01-01T10:20:12.976Z,52.20
2017-01-01T10:21:12.642Z,52.10
2017-01-01T10:22:11.687Z,52.10
2017-01-01T10:23:12.503Z,52.10
2017-01-01T10:24:12.810Z,52.00
2017-01-01T10:25:11.766Z,52.10
2017-01-01T10:26:13.427Z,52.50
2017-01-01T10:27:12.001Z,52.10
2017-01-01T10:28:12.577Z,52.10
2017-01-01T10:29:11.340Z,52.20
2017-01-01T10:30:11.399Z,52.10
2017-01-01T10:31:12.090Z,52.20
2017-01-01T10:32:12.761Z,52.20
2017-01-01T10:33:12.365Z,52.20
2017-01-01T10:34:13.162Z,51.70
2017-01-01T10:35:13.071Z,52.10
2017-01-01T10:36:12.727Z,52.10
2017-01-01T10:37:14.579Z,52.10
2017-01-01T10:38:12.209Z,52.10
2017-01-01T10:39:14.408Z,52.20
2017-01-01T10:40:12.028Z,52.20
2017-01-01T10:41:11.954Z,52.50
2017-01-01T10:42:12.216Z,52.30
2017-01-01T10:43:12.687Z,52.20
2017-01-01T10:44:13.315Z,52.30
2017-01-01T10:45:13.092Z,52.30
2017-01-01T10:46:12.889Z,52.30
2017-01-01T10:47:11.939Z,52.20
2017-01-01T10:48:13.408Z,52.30
2017-01-01T10:49:11.584Z,52.20
2017-01-01T10:50:11.499Z,52.20
2017-01-01T10:51:12.238Z,52.30
2017-01-01T10:52:12.163Z,52.20
2017-01-01T10:53:12.917Z,52.40
2017-01-01T10:54:12.960Z,52.30
2017-01-01T10:55:12.468Z,52.20
2017-01-01T10:56:12.035Z,52.30
2017-01-01T10:57:14.941Z,is
2017-01-01T10:58:11.505Z,is
2017-01-01T10:59:13.657Z,52.30
2017-01-01T11:00:13.358Z,52.30
2017-01-01T11:01:10.262Z,is
2017-01-01T11:02:11.517Z,52.20
2017-01-01T11:03:12.143Z,52.20
2017-01-01T11:04:12.057Z,52.30
2017-01-01T11:05:12.614Z,52.20
2017-01-01T11:06:12.123Z,52.20
2017-01-01T11:07:12.946Z,52.20
2017-01-01T11:08:12.137Z,52.20
2017-01-01T11:09:13.557Z,52.20
2017-01-01T11:10:11.655Z,52.10
2017-01-01T11:11:12.523Z,52.10
2017-01-01T11:12:11.762Z,52.10
2017-01-01T11:13:12.646Z,52.20
2017-01-01T11:14:11.927Z,52.00
2017-01-01T11:15:13.419Z,52.20
2017-01-01T11:16:11.536Z,52.20
2017-01-01T11:17:12.322Z,52.20
2017-01-01T11:18:12.246Z,52.40
2017-01-01T11:19:12.405Z,52.30
2017-01-01T11:20:12.113Z,52.50
2017-01-01T11:21:12.228Z,52.40
2017-01-01T11:22:15.792Z,52.50
2017-01-01T11:23:11.944Z,52.40
2017-01-01T11:24:15.856Z,52.40
2017-01-01T11:25:12.255Z,52.60
2017-01-01T11:26:10.132Z,is
2017-01-01T11:27:11.438Z,53.10
2017-01-01T11:28:10.312Z,is
2017-01-01T11:29:10.408Z,is
2017-01-01T11:30:12.254Z,53.00
2017-01-01T11:31:12.763Z,53.40
2017-01-01T11:32:12.313Z,53.40
2017-01-01T11:33:12.243Z,53.40
2017-01-01T11:34:12.786Z,53.30
2017-01-01T11:35:11.582Z,53.30
2017-01-01T11:36:12.119Z,53.30
2017-01-01T11:37:12.899Z,53.30
2017-01-01T11:38:09.549Z,is
2017-01-01T11:39:13.407Z,53.30
2017-01-01T11:40:11.984Z,53.30
2017-01-01T11:41:12.086Z,53.20
2017-01-01T11:42:12.135Z,53.20
2017-01-01T11:43:12.663Z,53.30
2017-01-01T11:44:12.382Z,53.10
2017-01-01T11:45:10.126Z,is
2017-01-01T11:46:12.331Z,53.20
2017-01-01T11:47:12.914Z,53.20
2017-01-01T11:48:12.114Z,53.50
2017-01-01T11:49:12.907Z,40.50
2017-01-01T11:50:12.082Z,35.70
2017-01-01T11:51:13.540Z,33.50
2017-01-01T11:52:12.847Z,33.00
2017-01-01T11:53:12.942Z,32.80
2017-01-01T11:54:13.887Z,33.30
2017-01-01T11:55:12.706Z,33.80
2017-01-01T11:56:12.425Z,34.70
2017-01-01T11:57:14.370Z,37.60
2017-01-01T11:58:11.628Z,39.20
2017-01-01T11:59:11.611Z,40.60
2017-01-01T12:00:12.188Z,42.80
2017-01-01T12:01:12.080Z,43.40
2017-01-01T12:02:12.620Z,44.30
2017-01-01T12:03:11.779Z,44.30
2017-01-01T12:04:13.384Z,44.50
2017-01-01T12:05:10.512Z,is
2017-01-01T12:06:12.157Z,44.60
2017-01-01T12:07:14.649Z,44.50
2017-01-01T12:08:12.112Z,44.60
2017-01-01T12:09:14.533Z,44.60
2017-01-01T12:10:12.163Z,44.70
2017-01-01T12:11:12.632Z,44.90
2017-01-01T12:12:12.177Z,45.10
2017-01-01T12:13:13.270Z,45.20
2017-01-01T12:14:12.464Z,45.10
2017-01-01T12:15:12.268Z,45.20
2017-01-01T12:16:12.940Z,45.20
2017-01-01T12:17:12.848Z,45.40
2017-01-01T12:18:11.877Z,45.50
2017-01-01T12:19:12.400Z,45.70
2017-01-01T12:20:12.105Z,45.70
2017-01-01T12:21:13.808Z,45.90
2017-01-01T12:22:11.851Z,46.20
2017-01-01T12:23:12.445Z,46.20
2017-01-01T12:24:12.577Z,46.20
2017-01-01T12:25:12.481Z,46.40
2017-01-01T12:26:20.146Z,46.40
2017-01-01T12:27:12.211Z,46.40
2017-01-01T12:28:12.792Z,47.00
2017-01-01T12:29:12.164Z,47.00
2017-01-01T12:30:13.820Z,47.00
2017-01-01T12:31:11.856Z,46.80
2017-01-01T12:32:14.985Z,47.10
2017-01-01T12:33:12.477Z,47.10
2017-01-01T12:34:12.985Z,47.40
2017-01-01T12:35:12.621Z,47.60
2017-01-01T12:36:11.974Z,47.70
2017-01-01T12:37:14.835Z,47.70
2017-01-01T12:38:15.530Z,47.70
2017-01-01T12:39:12.647Z,47.70
2017-01-01T12:40:13.936Z,47.70
2017-01-01T12:41:15.418Z,47.70
2017-01-01T12:42:13.233Z,47.70
2017-01-01T12:43:15.541Z,47.70
2017-01-01T12:44:13.338Z,47.70
2017-01-01T12:45:13.389Z,47.70
2017-01-01T12:46:13.319Z,47.70
2017-01-01T12:47:14.385Z,47.70
2017-01-01T12:48:15.006Z,47.70
2017-01-01T12:49:14.389Z,47.70
2017-01-01T12:50:12.723Z,47.90
2017-01-01T12:51:14.860Z,47.70
2017-01-01T12:52:15.155Z,47.70
2017-01-01T12:53:13.283Z,47.80
2017-01-01T12:54:15.175Z,47.70
2017-01-01T12:55:15.430Z,47.90
2017-01-01T12:56:13.409Z,47.70
2017-01-01T12:57:14.111Z,47.80